Time;durP1;ratioP1;P1;durP2;ratioP2;P2;SDS_P1;SDS_P2;PMS_P1;PMS_P2;Temp;Humidity;BMP_temperature;BMP_pressure;BME280_temperature;BME280_humidity;BME280_pressure;Samples;Min_cycle;Max_cycle;Signal;HPM_P1;HPM_P2
2023/03/08 00:02:45;;;;;;;;;;;;;;;1.24;79.11;98369.35;134268;1298;22591;-77
2023/03/08 00:05:45;;;;;;;;;;;;;;;1.17;79.28;98377.17;134263;1296;22422;-78
2023/03/08 00:08:56;;;;;;;;;;;;;;;1.09;79.31;98378.25;134223;1297;22517;-78
2023/03/08 00:12:23;;;;;;;;;;;;;;;;;;;;;
2023/03/08 00:15:29;;;;;;;;;;;;;;;0.87;79.57;98385.66;134236;1298;22603;-78
2023/03/08 00:18:32;;;;;;;;;;;;;;;0.78;79.77;98391.39;134229;1298;22461;-78
2023/03/08 00:21:33;;;;;;;;;;;;;;;0.70;79.94;98394.91;134248;1297;22465;-77
2023/03/08 00:24:53;;;;;;;;;;;;;;;0.64;80.14;98402.41;134222;1297;23174;-79
2023/03/08 00:28:11;;;;;;;;;;;;;;;0.56;80.35;98408.28;134246;1298;22407;-79
2023/03/08 00:31:14;;;;;;;;;;;;;;;0.50;80.45;98403.97;134084;1301;23192;-78
2023/03/08 00:34:25;;;;;;;;;;;;;;;0.48;80.68;98408.13;134107;1297;22491;-78
2023/03/08 00:38:31;;;;;;;;;;;;;;;0.45;80.76;98402.52;134140;1304;23074;-79
2023/03/08 00:41:28;;;;;;;;;;;;;;;0.41;80.96;98407.07;134061;1298;22490;-80
2023/03/08 00:44:29;;;;;;;;;;;;;;;0.37;81.21;98407.02;134133;1298;22457;-81
2023/03/08 00:47:50;;;;;;;;;;;;;;;0.34;81.12;98406.43;134102;1298;22457;-78
2023/03/08 00:51:07;;;;;;;;;;;;;;;0.32;81.23;98403.37;134120;1298;23541;-79
2023/03/08 00:54:16;;;;;;;;;;;;;;;0.29;81.44;98409.39;134119;1297;22441;-78
2023/03/08 00:57:31;;;;;;;;;;;;;;;0.26;81.53;98413.19;134127;1297;22471;-79
2023/03/08 01:00:46;;;;;;;;;;;;;;;0.25;81.73;98422.11;134106;1298;22453;-78
2023/03/08 01:03:48;;;;;;;;;;;;;;;0.25;81.49;98418.85;134110;1297;23396;-79
2023/03/08 01:07:02;;;;;;;;;;;;;;;;;;;;;
2023/03/08 01:10:10;;;;;;;;;;;;;;;0.26;81.76;98423.02;133947;1298;22463;-79
2023/03/08 01:13:13;;;;;;;;;;;;;;;0.26;81.82;98427.06;134081;1298;23242;-79
2023/03/08 01:16:22;;;;;;;;;;;;;;;0.25;82.15;98432.55;134121;1297;23211;-79
2023/03/08 01:19:45;;;;;;;;;;;;;;;;;;;;;
2023/03/08 01:23:06;;;;;;;;;;;;;;;0.20;82.05;98439.27;134081;1298;22470;-79
2023/03/08 01:26:09;;;;;;;;;;;;;;;0.19;82.44;98444.88;134116;1297;23224;-80
2023/03/08 01:29:13;;;;;;;;;;;;;;;0.14;82.47;98452.81;134107;1297;22451;-79
2023/03/08 01:32:24;;;;;;;;;;;;;;;0.11;82.42;98451.39;134141;1296;23522;-79
2023/03/08 01:35:25;;;;;;;;;;;;;;;0.11;82.48;98445.52;134109;1298;22433;-78
2023/03/08 01:42:40;;;;;;;;;;;;;;;0.07;82.61;98447.10;134239;1297;22476;-80
2023/03/08 01:46:12;;;;;;;;;;;;;;;;;;;;;
2023/03/08 01:49:21;;;;;;;;;;;;;;;0.12;82.72;98442.48;134085;1298;22462;-79
2023/03/08 01:52:39;;;;;;;;;;;;;;;;;;;;;
2023/03/08 01:56:21;;;;;;;;;;;;;;;0.18;82.93;98443.61;134154;1297;22558;-79
2023/03/08 01:59:44;;;;;;;;;;;;;;;;;;;;;
2023/03/08 02:03:35;;;;;;;;;;;;;;;;;;;;;
2023/03/08 02:07:21;;;;;;;;;;;;;;;;;;;;;
2023/03/08 02:10:24;;;;;;;;;;;;;;;0.13;83.33;98485.63;134106;1298;23077;-79
2023/03/08 02:13:31;;;;;;;;;;;;;;;0.11;83.39;98488.11;134046;1304;22437;-80
2023/03/08 02:17:18;;;;;;;;;;;;;;;0.07;83.54;98488.25;134221;1301;23330;-78
2023/03/08 02:20:45;;;;;;;;;;;;;;;0.06;83.67;98490.14;134073;1299;22516;-78
2023/03/08 02:23:46;;;;;;;;;;;;;;;0.04;83.53;98493.91;133996;1304;22479;-79
2023/03/08 02:27:04;;;;;;;;;;;;;;;0.01;83.60;98482.94;134258;1301;22537;-79
2023/03/08 02:30:11;;;;;;;;;;;;;;;-0.01;83.75;98491.98;134120;1298;152357;-79
2023/03/08 02:33:30;;;;;;;;;;;;;;;-0.03;83.73;98499.39;134082;1299;22460;-79
2023/03/08 02:37:47;;;;;;;;;;;;;;;-0.06;83.85;98502.46;134122;1304;24587;-79
2023/03/08 02:40:54;;;;;;;;;;;;;;;;;;;;;
2023/03/08 02:44:32;;;;;;;;;;;;;;;-0.10;84.05;98494.70;134090;1298;22426;-80
2023/03/08 02:48:21;;;;;;;;;;;;;;;-0.09;84.42;98502.41;134110;1298;23239;-79
2023/03/08 02:51:48;;;;;;;;;;;;;;;;;;;;;
2023/03/08 02:55:40;;;;;;;;;;;;;;;;;;;;;
2023/03/08 02:59:32;;;;;;;;;;;;;;;;;;;;;
2023/03/08 03:02:59;;;;;;;;;;;;;;;-0.15;84.37;98529.55;134052;1302;23117;-79
2023/03/08 03:06:20;;;;;;;;;;;;;;;-0.18;84.43;98531.88;134134;1298;22653;-79
2023/03/08 03:09:27;;;;;;;;;;;;;;;-0.17;84.33;98537.05;133912;1298;22414;-79
2023/03/08 03:12:45;;;;;;;;;;;;;;;;;;;;;
2023/03/08 03:16:08;;;;;;;;;;;;;;;-0.18;84.33;98545.98;134148;1298;22477;-79
2023/03/08 03:19:38;;;;;;;;;;;;;;;-0.20;84.37;98536.73;134150;1298;23535;-79
2023/03/08 03:22:46;;;;;;;;;;;;;;;-0.20;84.43;98539.52;133883;1301;22465;-79
2023/03/08 03:25:49;;;;;;;;;;;;;;;-0.21;84.42;98543.63;133946;1301;22485;-79
2023/03/08 03:29:21;;;;;;;;;;;;;;;-0.22;84.37;98543.52;134104;1298;23310;-79
2023/03/08 03:32:26;;;;;;;;;;;;;;;-0.19;84.45;98547.14;133914;1299;22456;-81
2023/03/08 03:35:33;;;;;;;;;;;;;;;-0.19;84.55;98556.66;133951;1291;22462;-79
2023/03/08 03:38:34;;;;;;;;;;;;;;;-0.19;84.38;98568.33;134043;1298;22449;-81
2023/03/08 03:42:27;;;;;;;;;;;;;;;;;;;;;
2023/03/08 03:45:37;;;;;;;;;;;;;;;-0.22;84.51;98566.19;134080;1302;23192;-79
2023/03/08 03:49:00;;;;;;;;;;;;;;;-0.24;84.61;98573.30;134120;1298;22457;-79
2023/03/08 03:52:35;;;;;;;;;;;;;;;-0.26;84.77;98575.23;133428;1304;22479;-80
2023/03/08 03:55:38;;;;;;;;;;;;;;;-0.28;84.78;98573.65;133535;1302;22483;-79
2023/03/08 03:58:45;;;;;;;;;;;;;;;-0.30;84.92;98582.83;133444;1302;22502;-80
2023/03/08 04:02:31;;;;;;;;;;;;;;;-0.32;84.99;98583.33;133451;1301;22497;-80
2023/03/08 04:05:42;;;;;;;;;;;;;;;-0.34;85.14;98579.55;133380;1308;22567;-79
2023/03/08 04:08:43;;;;;;;;;;;;;;;-0.33;85.11;98586.56;133476;1302;23312;-79
2023/03/08 04:11:46;;;;;;;;;;;;;;;-0.34;85.34;98594.30;133585;1302;22478;-79
2023/03/08 04:15:15;;;;;;;;;;;;;;;-0.32;85.35;98594.84;133453;1301;23342;-79
2023/03/08 04:18:28;;;;;;;;;;;;;;;;;;;;;
2023/03/08 04:21:29;;;;;;;;;;;;;;;-0.33;85.25;98601.38;133878;1298;22487;-78
2023/03/08 04:24:41;;;;;;;;;;;;;;;;;;;;;
2023/03/08 04:27:46;;;;;;;;;;;;;;;-0.36;85.42;98609.13;134123;1297;22443;-78
2023/03/08 04:30:50;;;;;;;;;;;;;;;-0.38;85.43;98613.98;133978;1301;22419;-79
2023/03/08 04:34:06;;;;;;;;;;;;;;;-0.43;85.57;98620.34;134070;1298;23203;-79
2023/03/08 04:37:39;;;;;;;;;;;;;;;;;;;;;
2023/03/08 04:41:11;;;;;;;;;;;;;;;;;;;;;
2023/03/08 04:44:32;;;;;;;;;;;;;;;-0.47;85.74;98619.07;134125;1298;22462;-78
2023/03/08 04:47:33;;;;;;;;;;;;;;;-0.47;85.65;98614.56;134028;1297;22452;-81
2023/03/08 04:50:34;;;;;;;;;;;;;;;-0.45;85.69;98605.91;134062;1299;22503;-78
2023/03/08 04:53:35;;;;;;;;;;;;;;;-0.46;85.67;98609.61;134105;1298;23362;-78
2023/03/08 04:56:53;;;;;;;;;;;;;;;-0.48;85.78;98616.71;133908;1297;22467;-79
2023/03/08 05:00:07;;;;;;;;;;;;;;;-0.50;85.67;98614.42;133979;1298;22432;-79
2023/03/08 05:03:12;;;;;;;;;;;;;;;-0.50;86.01;98615.83;133832;1298;22430;-79
2023/03/08 05:06:14;;;;;;;;;;;;;;;-0.48;85.92;98615.16;134005;1304;22445;-78
2023/03/08 05:09:22;;;;;;;;;;;;;;;-0.49;86.05;98626.52;133975;1297;22451;-79
2023/03/08 05:12:56;;;;;;;;;;;;;;;;;;;;;
2023/03/08 05:17:05;;;;;;;;;;;;;;;;;;;;;
2023/03/08 05:20:17;;;;;;;;;;;;;;;-0.49;86.01;98634.21;134130;1297;22482;-80
2023/03/08 05:23:49;;;;;;;;;;;;;;;-0.46;86.25;98637.92;133607;1301;22630;-79
2023/03/08 05:27:27;;;;;;;;;;;;;;;;;;;;;
2023/03/08 05:30:47;;;;;;;;;;;;;;;-0.46;86.27;98642.41;133329;1303;22460;-79
2023/03/08 05:33:49;;;;;;;;;;;;;;;-0.43;86.11;98646.75;133696;1301;22471;-81
2023/03/08 05:36:58;;;;;;;;;;;;;;;-0.40;86.13;98654.46;133751;1300;22525;-79
2023/03/08 05:40:25;;;;;;;;;;;;;;;;;;;;;
2023/03/08 05:43:39;;;;;;;;;;;;;;;-0.40;86.27;98653.08;133870;1299;23224;-82
2023/03/08 05:46:41;;;;;;;;;;;;;;;-0.41;86.43;98655.02;133727;1299;22455;-87
2023/03/08 05:49:52;;;;;;;;;;;;;;;-0.41;86.35;98661.67;133788;1301;22448;-89
2023/03/08 05:52:56;;;;;;;;;;;;;;;-0.45;86.35;98665.06;133680;1302;22568;-81
2023/03/08 05:56:10;;;;;;;;;;;;;;;-0.45;86.21;98666.83;134002;1297;22487;-76
2023/03/08 05:59:18;;;;;;;;;;;;;;;-0.41;86.47;98672.98;134138;1297;22408;-82
2023/03/08 06:02:40;;;;;;;;;;;;;;;-0.39;86.42;98683.89;134060;1298;22438;-82
2023/03/08 06:09:46;;;;;;;;;;;;;;;-0.36;86.67;98681.89;134054;1298;23106;-83
2023/03/08 06:13:03;;;;;;;;;;;;;;;-0.32;86.63;98685.48;134069;1298;22464;-83
2023/03/08 06:17:19;;;;;;;;;;;;;;;-0.29;86.58;98692.09;134094;1300;22437;-83
2023/03/08 06:20:32;;;;;;;;;;;;;;;;;;;;;
2023/03/08 06:23:53;;;;;;;;;;;;;;;-0.13;86.73;98690.48;133888;1304;22477;-83
2023/03/08 06:26:58;;;;;;;;;;;;;;;-0.07;86.52;98683.67;134026;1298;22495;-83
2023/03/08 06:30:13;;;;;;;;;;;;;;;-0.00;86.62;98692.52;134021;1298;22428;-82
2023/03/08 06:33:59;;;;;;;;;;;;;;;0.08;86.58;98693.14;134077;1297;22494;-82
2023/03/08 06:37:21;;;;;;;;;;;;;;;0.15;86.53;98704.74;134032;1298;22541;-83
2023/03/08 06:40:39;;;;;;;;;;;;;;;;;;;;;
2023/03/08 06:43:54;;;;;;;;;;;;;;;0.24;86.42;98712.27;134074;1297;22465;-82
2023/03/08 06:47:11;;;;;;;;;;;;;;;;;;;;;
2023/03/08 06:50:56;;;;;;;;;;;;;;;0.30;86.45;98722.89;134122;1297;22467;-82
2023/03/08 06:54:13;;;;;;;;;;;;;;;;;;;;;
2023/03/08 06:58:39;;;;;;;;;;;;;;;0.45;86.61;98722.23;134064;1297;22485;-81
2023/03/08 07:01:47;;;;;;;;;;;;;;;0.52;86.48;98731.73;133896;1297;22438;-82
2023/03/08 07:04:50;;;;;;;;;;;;;;;0.56;86.34;98731.59;134097;1297;22425;-81
2023/03/08 07:08:35;;;;;;;;;;;;;;;0.65;86.37;98738.92;134089;1297;22475;-81
2023/03/08 07:11:48;;;;;;;;;;;;;;;0.71;86.15;98738.93;134088;1297;22436;-81
2023/03/08 07:15:25;;;;;;;;;;;;;;;;;;;;;
2023/03/08 07:19:13;;;;;;;;;;;;;;;0.87;86.30;98734.45;134110;1297;22542;-82
2023/03/08 07:22:43;;;;;;;;;;;;;;;;;;;;;
2023/03/08 07:26:07;;;;;;;;;;;;;;;1.17;86.35;98731.81;133630;1300;22478;-81
2023/03/08 07:29:07;;;;;;;;;;;;;;;1.39;86.14;98741.61;133638;1300;23193;-80
2023/03/08 07:32:27;;;;;;;;;;;;;;;1.54;85.89;98742.85;133695;1300;22484;-80
2023/03/08 07:35:28;;;;;;;;;;;;;;;1.62;85.51;98740.58;133855;1304;22474;-80
2023/03/08 07:42:27;;;;;;;;;;;;;;;2.08;85.39;98743.66;133584;1300;22462;-80
2023/03/08 07:45:38;;;;;;;;;;;;;;;2.20;85.33;98745.64;133680;1299;22455;-80
2023/03/08 07:48:38;;;;;;;;;;;;;;;2.36;85.12;98753.41;133894;1299;22573;-81
2023/03/08 07:52:44;;;;;;;;;;;;;;;2.30;84.26;98755.76;134224;1300;23197;-81
2023/03/08 07:55:34;;;;;;;;;;;;;;;2.24;84.00;98766.02;134177;1298;22492;-81
2023/03/08 07:58:58;;;;;;;;;;;;;;;2.20;84.18;98762.61;134297;1297;22439;-81
2023/03/08 08:02:07;;;;;;;;;;;;;;;2.22;84.25;98758.74;134161;1296;22524;-81
2023/03/08 08:06:12;;;;;;;;;;;;;;;2.35;84.12;98760.46;134321;1296;22850;-81
2023/03/08 08:09:19;;;;;;;;;;;;;;;2.49;84.08;98751.11;134208;1296;23251;-81
2023/03/08 08:12:22;;;;;;;;;;;;;;;2.62;83.85;98760.08;134280;1293;22470;-82
2023/03/08 08:15:33;;;;;;;;;;;;;;;2.65;83.24;98764.50;134303;1298;22500;-81
2023/03/08 08:18:36;;;;;;;;;;;;;;;2.64;83.28;98764.28;134305;1296;22441;-81
2023/03/08 08:22:00;;;;;;;;;;;;;;;2.62;82.94;98762.75;134292;1297;22498;-81
2023/03/08 08:25:04;;;;;;;;;;;;;;;2.58;82.62;98752.99;134100;1300;22477;-80
2023/03/08 08:28:55;;;;;;;;;;;;;;;;;;;;;
2023/03/08 08:32:06;;;;;;;;;;;;;;;2.48;82.32;98764.64;134116;1297;22459;-80
2023/03/08 08:35:22;;;;;;;;;;;;;;;2.49;82.08;98764.00;134298;1296;22481;-81
2023/03/08 08:38:27;;;;;;;;;;;;;;;2.49;82.24;98767.48;134070;1298;22461;-81
2023/03/08 08:41:51;;;;;;;;;;;;;;;2.51;82.07;98766.59;134281;1304;22457;-80
2023/03/08 08:45:32;;;;;;;;;;;;;;;2.58;82.02;98772.71;134326;1297;22427;-80
2023/03/08 08:49:07;;;;;;;;;;;;;;;;;;;;;
2023/03/08 08:52:37;;;;;;;;;;;;;;;2.58;81.22;98765.55;134313;1296;23566;-80
2023/03/08 08:55:58;;;;;;;;;;;;;;;2.53;81.26;98759.59;134266;1297;22596;-81
2023/03/08 08:59:31;;;;;;;;;;;;;;;;;;;;;
2023/03/08 09:02:31;;;;;;;;;;;;;;;2.48;81.20;98761.45;134306;1297;22459;-81
2023/03/08 09:05:52;;;;;;;;;;;;;;;2.48;81.16;98747.70;134317;1296;22471;-81
2023/03/08 09:09:17;;;;;;;;;;;;;;;2.53;81.14;98746.05;134336;1296;23154;-80
2023/03/08 09:12:19;;;;;;;;;;;;;;;2.55;80.49;98744.03;134165;1298;22546;-80
2023/03/08 09:15:21;;;;;;;;;;;;;;;2.56;80.67;98740.09;134294;1298;23453;-80
2023/03/08 09:18:29;;;;;;;;;;;;;;;2.66;80.66;98746.27;134312;1297;22430;-80
2023/03/08 09:21:33;;;;;;;;;;;;;;;2.75;80.79;98744.35;134299;1298;23149;-81
2023/03/08 09:24:34;;;;;;;;;;;;;;;2.88;80.82;98742.23;134306;1298;23255;-81
2023/03/08 09:27:35;;;;;;;;;;;;;;;3.21;81.00;98737.16;134336;1297;23070;-80
2023/03/08 09:31:06;;;;;;;;;;;;;;;;;;;;;
2023/03/08 09:34:27;;;;;;;;;;;;;;;3.67;79.72;98728.24;134085;1298;22490;-81
2023/03/08 09:37:28;;;;;;;;;;;;;;;4.00;80.14;98730.55;134135;1297;23163;-80
2023/03/08 09:40:32;;;;;;;;;;;;;;;4.30;79.81;98728.33;134149;1297;22457;-81
2023/03/08 09:44:23;;;;;;;;;;;;;;;;;;;;;
2023/03/08 09:47:56;;;;;;;;;;;;;;;4.56;78.02;98722.97;134118;1297;23214;-80
2023/03/08 09:51:10;;;;;;;;;;;;;;;;;;;;;
2023/03/08 09:54:33;;;;;;;;;;;;;;;5.13;77.62;98718.25;134129;1297;23171;-80
2023/03/08 09:57:39;;;;;;;;;;;;;;;5.12;76.62;98718.39;134146;1297;22633;-79
2023/03/08 10:00:45;;;;;;;;;;;;;;;4.99;75.81;98714.88;134147;1297;22539;-80
2023/03/08 10:04:04;;;;;;;;;;;;;;;4.92;76.06;98711.39;133958;1300;22452;-80
2023/03/08 10:07:15;;;;;;;;;;;;;;;4.90;75.94;98706.23;134123;1297;22592;-80
2023/03/08 10:10:19;;;;;;;;;;;;;;;4.68;75.35;98704.23;134138;1297;23061;-80
2023/03/08 10:17:25;;;;;;;;;;;;;;;4.39;75.23;98690.45;133948;1298;22489;-79
2023/03/08 10:20:36;;;;;;;;;;;;;;;4.43;75.53;98686.20;134084;1291;24075;-79
2023/03/08 10:23:40;;;;;;;;;;;;;;;4.44;75.81;98682.77;134129;1297;22433;-80
2023/03/08 10:26:42;;;;;;;;;;;;;;;4.51;75.29;98687.45;134031;1298;22535;-80
2023/03/08 10:29:50;;;;;;;;;;;;;;;4.54;75.09;98686.42;134159;1297;22445;-80
2023/03/08 10:37:09;;;;;;;;;;;;;;;4.47;75.03;98681.30;134259;1297;22541;-81
2023/03/08 10:40:15;;;;;;;;;;;;;;;4.43;74.74;98679.71;134197;1296;22499;-81
2023/03/08 10:43:25;;;;;;;;;;;;;;;4.42;74.91;98676.46;134335;1298;22511;-80
2023/03/08 10:46:52;;;;;;;;;;;;;;;4.37;74.45;98669.50;134183;1296;23903;-80
2023/03/08 10:50:17;;;;;;;;;;;;;;;4.27;74.31;98662.89;134288;1297;22548;-80
2023/03/08 10:53:41;;;;;;;;;;;;;;;4.11;73.63;98659.77;134035;1298;22472;-80
2023/03/08 10:57:01;;;;;;;;;;;;;;;3.96;73.28;98659.02;134259;1296;22479;-80
2023/03/08 11:00:36;;;;;;;;;;;;;;;;;;;;;
2023/03/08 11:07:37;;;;;;;;;;;;;;;4.00;74.38;98651.14;134312;1297;22441;-80
2023/03/08 11:10:38;;;;;;;;;;;;;;;4.14;74.46;98651.77;134113;1296;23512;-81
2023/03/08 11:14:11;;;;;;;;;;;;;;;;;;;;;
2023/03/08 11:17:38;;;;;;;;;;;;;;;4.39;74.36;98637.75;134345;1295;22478;-80
2023/03/08 11:20:48;;;;;;;;;;;;;;;4.37;73.19;98628.52;134312;1294;23341;-80
2023/03/08 11:24:17;;;;;;;;;;;;;;;;;;;;;
2023/03/08 11:27:33;;;;;;;;;;;;;;;;;;;;;
2023/03/08 11:30:37;;;;;;;;;;;;;;;4.30;73.96;98613.49;134311;1297;22449;-80
2023/03/08 11:34:03;;;;;;;;;;;;;;;4.28;73.16;98606.77;134314;1297;22461;-80
2023/03/08 11:37:58;;;;;;;;;;;;;;;;;;;;;
2023/03/08 11:41:19;;;;;;;;;;;;;;;3.98;72.77;98590.65;133968;1298;22486;-80
2023/03/08 11:44:31;;;;;;;;;;;;;;;3.98;73.61;98590.05;133999;1300;22581;-80
2023/03/08 11:47:52;;;;;;;;;;;;;;;;;;;;;
2023/03/08 11:51:15;;;;;;;;;;;;;;;;;;;;;
2023/03/08 11:54:51;;;;;;;;;;;;;;;3.53;73.29;98585.69;134025;1301;22461;-82
2023/03/08 11:58:15;;;;;;;;;;;;;;;3.46;73.21;98580.19;134007;1298;22488;-82
2023/03/08 12:01:25;;;;;;;;;;;;;;;3.40;73.42;98576.06;133925;1298;22485;-81
2023/03/08 12:04:44;;;;;;;;;;;;;;;;;;;;;
2023/03/08 12:07:54;;;;;;;;;;;;;;;3.31;73.51;98563.13;134297;1298;23166;-81
2023/03/08 12:11:16;;;;;;;;;;;;;;;3.39;73.44;98559.70;134288;1298;23188;-80
2023/03/08 12:14:17;;;;;;;;;;;;;;;3.53;73.89;98558.61;134344;1297;22448;-80
2023/03/08 12:17:47;;;;;;;;;;;;;;;3.59;74.10;98553.94;134319;1298;23343;-81
2023/03/08 12:21:17;;;;;;;;;;;;;;;3.64;73.68;98545.73;134310;1296;22480;-82
2023/03/08 12:25:18;;;;;;;;;;;;;;;;;;;;;
2023/03/08 12:28:44;;;;;;;;;;;;;;;;;;;;;
2023/03/08 12:31:48;;;;;;;;;;;;;;;3.80;73.74;98530.56;134298;1297;22501;-81
2023/03/08 12:35:01;;;;;;;;;;;;;;;3.96;73.81;98530.81;134301;1298;22477;-81
2023/03/08 12:38:28;;;;;;;;;;;;;;;4.07;73.47;98520.05;134176;1298;23068;-80
2023/03/08 12:42:41;;;;;;;;;;;;;;;;;;;;;
2023/03/08 12:46:08;;;;;;;;;;;;;;;4.00;73.11;98509.02;134231;1298;22490;-81
2023/03/08 12:49:24;;;;;;;;;;;;;;;4.01;73.62;98505.78;134185;1295;22574;-80
2023/03/08 12:52:34;;;;;;;;;;;;;;;4.08;73.94;98504.54;134187;1297;22439;-81
2023/03/08 12:55:34;;;;;;;;;;;;;;;4.08;73.62;98495.08;134277;1298;23260;-82
2023/03/08 12:58:37;;;;;;;;;;;;;;;4.05;73.38;98491.19;134345;1297;22469;-81
2023/03/08 13:01:47;;;;;;;;;;;;;;;4.02;73.70;98486.94;134234;1298;22540;-81
2023/03/08 13:04:48;;;;;;;;;;;;;;;3.90;73.07;98478.29;134306;1296;22515;-81
2023/03/08 13:07:54;;;;;;;;;;;;;;;3.84;73.92;98472.77;134323;1297;22439;-81
2023/03/08 13:11:07;;;;;;;;;;;;;;;3.81;74.40;98469.83;134335;1295;22473;-81
2023/03/08 13:14:51;;;;;;;;;;;;;;;;;;;;;
2023/03/08 13:18:08;;;;;;;;;;;;;;;3.82;74.42;98458.67;133910;1298;23313;-81
2023/03/08 13:21:27;;;;;;;;;;;;;;;3.87;74.88;98451.53;134300;1304;22457;-81
2023/03/08 13:24:34;;;;;;;;;;;;;;;3.96;74.76;98450.14;134302;1298;22481;-83
2023/03/08 13:27:47;;;;;;;;;;;;;;;3.94;74.68;98445.84;134172;1297;23208;-80
2023/03/08 13:30:59;;;;;;;;;;;;;;;3.91;74.43;98439.67;134325;1296;22449;-80
2023/03/08 13:34:01;;;;;;;;;;;;;;;3.90;74.45;98436.86;134309;1297;23177;-81
2023/03/08 13:37:24;;;;;;;;;;;;;;;3.89;74.53;98437.32;134177;1296;23315;-81
2023/03/08 13:40:29;;;;;;;;;;;;;;;3.94;74.43;98431.16;134274;1297;22425;-81
2023/03/08 13:43:53;;;;;;;;;;;;;;;3.98;74.49;98426.84;134171;1296;23115;-81
2023/03/08 13:51:20;;;;;;;;;;;;;;;4.03;75.03;98413.48;134087;1297;22463;-81
2023/03/08 13:54:47;;;;;;;;;;;;;;;4.01;74.66;98408.30;134285;1298;23253;-82
2023/03/08 13:57:51;;;;;;;;;;;;;;;3.93;74.43;98402.09;134167;1297;23193;-81
2023/03/08 14:01:10;;;;;;;;;;;;;;;3.88;74.97;98399.11;134292;1297;22434;-81
2023/03/08 14:04:43;;;;;;;;;;;;;;;3.84;75.07;98397.26;134188;1298;23375;-81
2023/03/08 14:07:54;;;;;;;;;;;;;;;3.84;75.57;98389.58;134308;1298;22477;-81
2023/03/08 14:11:23;;;;;;;;;;;;;;;3.82;75.27;98385.02;134292;1301;23385;-81
2023/03/08 14:15:06;;;;;;;;;;;;;;;3.79;75.52;98378.52;134217;1296;22447;-82
2023/03/08 14:18:07;;;;;;;;;;;;;;;3.75;75.90;98373.05;134053;1298;22478;-81
2023/03/08 14:21:24;;;;;;;;;;;;;;;3.74;75.99;98368.36;134267;1298;23152;-81
2023/03/08 14:24:27;;;;;;;;;;;;;;;3.74;76.05;98362.98;134202;1298;23340;-81
2023/03/08 14:27:41;;;;;;;;;;;;;;;3.73;76.28;98360.33;134261;1297;22435;-81
2023/03/08 14:30:50;;;;;;;;;;;;;;;3.71;76.72;98354.77;131839;1297;3268569;-81
2023/03/08 14:34:05;;;;;;;;;;;;;;;3.69;76.71;98348.33;134313;1291;23081;-81
2023/03/08 14:37:54;;;;;;;;;;;;;;;3.63;76.53;98347.59;134139;1298;22480;-81
2023/03/08 14:41:02;;;;;;;;;;;;;;;3.57;76.33;98340.64;134044;1297;22455;-82
2023/03/08 14:45:12;;;;;;;;;;;;;;;3.54;76.56;98337.14;134258;1297;22451;-81
2023/03/08 14:48:09;;;;;;;;;;;;;;;3.58;76.90;98330.58;134165;1297;22462;-82
2023/03/08 14:51:18;;;;;;;;;;;;;;;3.67;77.19;98329.84;134167;1304;22478;-82
2023/03/08 14:54:27;;;;;;;;;;;;;;;3.69;77.34;98326.23;134303;1289;22398;-79
2023/03/08 14:57:50;;;;;;;;;;;;;;;3.66;77.24;98326.21;134278;1301;22450;-80
2023/03/08 15:01:53;;;;;;;;;;;;;;;;;;;;;
2023/03/08 15:04:52;;;;;;;;;;;;;;;3.56;77.87;98321.91;134245;1297;22440;-80
2023/03/08 15:08:05;;;;;;;;;;;;;;;3.53;77.82;98324.52;134094;1298;22490;-81
2023/03/08 15:11:37;;;;;;;;;;;;;;;;;;;;;
2023/03/08 15:15:28;;;;;;;;;;;;;;;;;;;;;
2023/03/08 15:18:37;;;;;;;;;;;;;;;3.56;78.69;98321.37;134286;1296;22464;-81
2023/03/08 15:21:42;;;;;;;;;;;;;;;3.56;78.64;98314.74;134175;1298;22408;-81
2023/03/08 15:25:04;;;;;;;;;;;;;;;;;;;;;
2023/03/08 15:28:14;;;;;;;;;;;;;;;3.50;78.73;98316.23;134277;1298;22438;-86
2023/03/08 15:31:36;;;;;;;;;;;;;;;3.48;79.02;98311.92;134289;1298;23247;-88
2023/03/08 15:34:54;;;;;;;;;;;;;;;3.47;79.00;98308.68;133898;1297;23294;-83
2023/03/08 15:37:57;;;;;;;;;;;;;;;3.46;79.32;98303.95;134267;1295;22467;-85
2023/03/08 15:41:03;;;;;;;;;;;;;;;3.43;79.44;98303.19;134261;1304;22463;-84
2023/03/08 15:44:04;;;;;;;;;;;;;;;3.41;79.85;98302.57;134213;1297;22452;-84
2023/03/08 15:47:08;;;;;;;;;;;;;;;3.37;79.92;98300.24;134167;1297;22525;-83
2023/03/08 15:50:29;;;;;;;;;;;;;;;3.36;79.86;98296.05;134246;1296;22434;-82
2023/03/08 15:53:29;;;;;;;;;;;;;;;3.36;80.31;98294.58;134243;1298;22506;-83
2023/03/08 15:57:00;;;;;;;;;;;;;;;;;;;;;
2023/03/08 16:00:21;;;;;;;;;;;;;;;3.39;80.77;98292.48;134165;1297;22488;-85
2023/03/08 16:03:27;;;;;;;;;;;;;;;3.39;81.27;98293.98;134089;1297;22466;-82
2023/03/08 16:06:30;;;;;;;;;;;;;;;3.39;81.52;98294.02;134214;1297;23155;-84
2023/03/08 16:09:31;;;;;;;;;;;;;;;3.37;81.20;98299.48;134094;1297;22468;-83
2023/03/08 16:12:32;;;;;;;;;;;;;;;3.35;81.57;98294.27;134193;1297;22472;-84
2023/03/08 16:15:55;;;;;;;;;;;;;;;3.33;81.68;98287.54;134263;1294;22451;-84
2023/03/08 16:19:16;;;;;;;;;;;;;;;3.29;81.88;98283.56;134135;1298;23224;-83
2023/03/08 16:22:17;;;;;;;;;;;;;;;3.25;82.10;98281.34;134127;1298;23227;-82
2023/03/08 16:25:26;;;;;;;;;;;;;;;3.23;82.29;98273.61;134204;1297;22452;-84
2023/03/08 16:28:27;;;;;;;;;;;;;;;3.20;82.49;98267.33;134168;1297;23445;-84
2023/03/08 16:31:39;;;;;;;;;;;;;;;;;;;;;
2023/03/08 16:34:50;;;;;;;;;;;;;;;3.13;82.93;98256.74;134192;1297;22932;-83
2023/03/08 16:38:24;;;;;;;;;;;;;;;;;;;;;
2023/03/08 16:41:38;;;;;;;;;;;;;;;3.08;83.02;98248.39;134175;1296;22626;-84
2023/03/08 16:44:45;;;;;;;;;;;;;;;3.05;83.44;98239.27;134015;1297;22444;-84
2023/03/08 16:48:00;;;;;;;;;;;;;;;;;;;;;
2023/03/08 16:51:00;;;;;;;;;;;;;;;2.99;83.80;98240.17;134218;1298;23077;-84
2023/03/08 16:54:04;;;;;;;;;;;;;;;2.96;83.92;98242.92;134038;1299;22612;-85
2023/03/08 16:57:25;;;;;;;;;;;;;;;2.94;83.95;98248.92;134166;1298;22435;-83
2023/03/08 17:00:33;;;;;;;;;;;;;;;2.92;84.20;98250.68;134202;1298;22462;-84
2023/03/08 17:03:36;;;;;;;;;;;;;;;2.89;84.00;98250.27;134207;1297;23111;-84
2023/03/08 17:06:41;;;;;;;;;;;;;;;2.86;84.21;98247.60;134187;1299;22455;-84
2023/03/08 17:09:42;;;;;;;;;;;;;;;2.81;84.30;98242.23;134202;1290;22569;-84
2023/03/08 17:12:43;;;;;;;;;;;;;;;2.78;84.59;98231.17;134190;1304;22532;-83
2023/03/08 17:15:47;;;;;;;;;;;;;;;2.75;84.72;98221.77;134128;1297;23940;-84
2023/03/08 17:18:49;;;;;;;;;;;;;;;2.71;85.02;98219.77;134072;1297;22467;-83
2023/03/08 17:22:02;;;;;;;;;;;;;;;2.68;85.26;98216.77;134203;1298;22469;-85
2023/03/08 17:25:05;;;;;;;;;;;;;;;2.65;85.41;98214.36;134216;1298;23283;-85
2023/03/08 17:28:12;;;;;;;;;;;;;;;2.62;85.50;98209.49;134225;1298;23096;-86
2023/03/08 17:31:17;;;;;;;;;;;;;;;2.60;85.57;98206.52;134241;1297;22447;-81
2023/03/08 17:34:20;;;;;;;;;;;;;;;2.59;85.91;98204.27;134242;1297;22457;-86
2023/03/08 17:37:40;;;;;;;;;;;;;;;2.58;85.92;98212.15;134240;1297;23076;-75
2023/03/08 17:40:43;;;;;;;;;;;;;;;2.59;85.78;98198.13;134214;1296;22465;-78
2023/03/08 17:44:04;;;;;;;;;;;;;;;2.57;86.33;98183.98;134205;1298;22457;-74
2023/03/08 17:47:36;;;;;;;;;;;;;;;2.55;86.32;98181.92;134211;1304;22535;-75
2023/03/08 17:50:37;;;;;;;;;;;;;;;2.54;86.45;98175.84;134213;1297;23193;-76
2023/03/08 17:54:08;;;;;;;;;;;;;;;;;;;;;
2023/03/08 17:57:41;;;;;;;;;;;;;;;2.54;87.05;98176.66;134199;1297;23169;-75
2023/03/08 18:01:05;;;;;;;;;;;;;;;2.54;87.15;98172.79;134214;1298;23045;-77
2023/03/08 18:04:08;;;;;;;;;;;;;;;2.53;87.38;98163.66;134216;1297;22516;-75
2023/03/08 18:08:03;;;;;;;;;;;;;;;;;;;;;
2023/03/08 18:11:07;;;;;;;;;;;;;;;2.50;87.02;98146.73;134223;1288;22448;-76
2023/03/08 18:14:10;;;;;;;;;;;;;;;2.47;87.24;98141.94;134240;1297;22584;-77
2023/03/08 18:17:38;;;;;;;;;;;;;;;2.44;87.31;98128.48;134237;1301;22550;-78
2023/03/08 18:20:39;;;;;;;;;;;;;;;2.42;87.26;98128.67;133961;1298;22470;-78
2023/03/08 18:24:10;;;;;;;;;;;;;;;;;;;;;
2023/03/08 18:28:17;;;;;;;;;;;;;;;2.40;87.55;98116.70;134154;1298;22583;-77
2023/03/08 18:35:50;;;;;;;;;;;;;;;;;;;;;
2023/03/08 18:38:49;;;;;;;;;;;;;;;2.36;87.86;98107.08;134173;1297;22618;-79
2023/03/08 18:41:53;;;;;;;;;;;;;;;2.35;87.95;98103.05;134140;1298;22433;-78
2023/03/08 18:44:58;;;;;;;;;;;;;;;2.35;88.19;98103.81;134168;1298;23315;-78
2023/03/08 18:48:22;;;;;;;;;;;;;;;;;;;;;
2023/03/08 18:55:17;;;;;;;;;;;;;;;2.32;88.29;98082.48;134255;1298;22455;-78
2023/03/08 18:58:17;;;;;;;;;;;;;;;2.34;88.53;98082.11;134244;1297;22435;-78
2023/03/08 19:01:18;;;;;;;;;;;;;;;2.34;88.25;98082.65;134257;1299;23138;-78
2023/03/08 19:04:39;;;;;;;;;;;;;;;2.33;88.39;98080.64;134235;1298;22443;-78
2023/03/08 19:07:45;;;;;;;;;;;;;;;2.33;88.41;98073.67;134217;1298;22511;-79
2023/03/08 19:11:14;;;;;;;;;;;;;;;2.34;88.42;98063.51;134144;1297;22470;-78